sensor_id;sensor_type;location;lat;lon;timestamp;pressure;altitude;pressure_sealevel;temperature;humidity
62122;BME280;48108;47.532;19.084;2023-09-19T03:52:12;99820.09;;;20.69;100.00
62122;BME280;48108;47.532;19.084;2023-09-19T03:55:16;99824.47;;;20.70;100.00
62122;BME280;48108;47.532;19.084;2023-09-19T03:58:19;99827.34;;;20.80;100.00
62122;BME280;48108;47.532;19.084;2023-09-19T04:01:25;99827.63;;;20.83;100.00
62122;BME280;48108;47.532;19.084;2023-09-19T04:04:31;99829.84;;;20.87;100.00
62122;BME280;48108;47.532;19.084;2023-09-19T04:07:34;99838.34;;;20.90;100.00
62122;BME280;48108;47.532;19.084;2023-09-19T04:10:37;99838.12;;;20.92;100.00
62122;BME280;48108;47.532;19.084;2023-09-19T04:13:40;99836.28;;;21.02;100.00
62122;BME280;48108;47.532;19.084;2023-09-19T04:16:44;99840.16;;;21.06;100.00
62122;BME280;48108;47.532;19.084;2023-09-19T04:19:47;99842.38;;;21.10;100.00
62122;BME280;48108;47.532;19.084;2023-09-19T04:22:51;99841.56;;;21.14;100.00
62122;BME280;48108;47.532;19.084;2023-09-19T04:25:54;99837.50;;;21.17;100.00
62122;BME280;48108;47.532;19.084;2023-09-19T04:28:57;99850.41;;;21.21;100.00
62122;BME280;48108;47.532;19.084;2023-09-19T04:32:00;99850.72;;;21.25;100.00
62122;BME280;48108;47.532;19.084;2023-09-19T04:35:03;99852.41;;;21.31;100.00
62122;BME280;48108;47.532;19.084;2023-09-19T04:38:08;99856.19;;;21.25;100.00
62122;BME280;48108;47.532;19.084;2023-09-19T04:41:11;99855.03;;;21.16;100.00
62122;BME280;48108;47.532;19.084;2023-09-19T04:44:15;99868.19;;;21.19;100.00
62122;BME280;48108;47.532;19.084;2023-09-19T04:47:19;99869.06;;;21.24;100.00
62122;BME280;48108;47.532;19.084;2023-09-19T04:50:22;99864.97;;;21.27;99.68
62122;BME280;48108;47.532;19.084;2023-09-19T04:53:26;99872.09;;;21.28;99.70
62122;BME280;48108;47.532;19.084;2023-09-19T04:56:30;99878.66;;;21.27;99.73
62122;BME280;48108;47.532;19.084;2023-09-19T04:59:35;99867.72;;;21.32;98.59
62122;BME280;48108;47.532;19.084;2023-09-19T05:02:42;99878.44;;;21.34;97.55
62122;BME280;48108;47.532;19.084;2023-09-19T05:05:45;99888.53;;;21.28;97.40
62122;BME280;48108;47.532;19.084;2023-09-19T05:08:49;99878.09;;;21.25;97.30
62122;BME280;48108;47.532;19.084;2023-09-19T05:11:55;99881.66;;;21.25;97.78
62122;BME280;48108;47.532;19.084;2023-09-19T05:14:59;99894.28;;;21.26;97.58
62122;BME280;48108;47.532;19.084;2023-09-19T05:18:03;99897.19;;;21.20;98.09
62122;BME280;48108;47.532;19.084;2023-09-19T05:21:06;99910.81;;;21.10;98.50
62122;BME280;48108;47.532;19.084;2023-09-19T05:24:09;99908.84;;;21.05;99.54
62122;BME280;48108;47.532;19.084;2023-09-19T05:27:14;99916.91;;;20.90;100.00
62122;BME280;48108;47.532;19.084;2023-09-19T05:30:19;99931.59;;;20.61;100.00
62122;BME280;48108;47.532;19.084;2023-09-19T05:33:22;99936.53;;;20.59;100.00
62122;BME280;48108;47.532;19.084;2023-09-19T05:36:25;99937.94;;;20.45;100.00
62122;BME280;48108;47.532;19.084;2023-09-19T05:39:28;99944.47;;;20.22;100.00
62122;BME280;48108;47.532;19.084;2023-09-19T05:42:31;99939.34;;;20.09;100.00
62122;BME280;48108;47.532;19.084;2023-09-19T05:45:34;99942.19;;;19.97;100.00
62122;BME280;48108;47.532;19.084;2023-09-19T05:48:39;99937.00;;;19.96;100.00
62122;BME280;48108;47.532;19.084;2023-09-19T05:51:44;99937.81;;;19.96;100.00
62122;BME280;48108;47.532;19.084;2023-09-19T05:54:48;99944.09;;;19.97;100.00
62122;BME280;48108;47.532;19.084;2023-09-19T05:57:52;99934.66;;;19.87;100.00
62122;BME280;48108;47.532;19.084;2023-09-19T06:00:56;99948.06;;;19.89;100.00
62122;BME280;48108;47.532;19.084;2023-09-19T06:04:00;99952.47;;;19.90;100.00
62122;BME280;48108;47.532;19.084;2023-09-19T06:07:03;99958.34;;;19.82;100.00
62122;BME280;48108;47.532;19.084;2023-09-19T06:10:07;99949.75;;;19.73;100.00
62122;BME280;48108;47.532;19.084;2023-09-19T06:13:11;99960.22;;;19.64;100.00
62122;BME280;48108;47.532;19.084;2023-09-19T06:16:14;99962.03;;;19.59;100.00
62122;BME280;48108;47.532;19.084;2023-09-19T06:19:16;99965.84;;;19.58;100.00
62122;BME280;48108;47.532;19.084;2023-09-19T06:22:19;99969.53;;;19.35;100.00
62122;BME280;48108;47.532;19.084;2023-09-19T06:25:22;99971.50;;;18.94;100.00
62122;BME280;48108;47.532;19.084;2023-09-19T06:28:26;99969.06;;;18.69;100.00
62122;BME280;48108;47.532;19.084;2023-09-19T06:31:30;99966.59;;;18.55;100.00
62122;BME280;48108;47.532;19.084;2023-09-19T06:34:34;99968.97;;;18.64;100.00
62122;BME280;48108;47.532;19.084;2023-09-19T06:37:38;99978.91;;;18.70;100.00
62122;BME280;48108;47.532;19.084;2023-09-19T06:40:41;99984.69;;;18.85;100.00
62122;BME280;48108;47.532;19.084;2023-09-19T06:43:45;99984.81;;;18.90;100.00
62122;BME280;48108;47.532;19.084;2023-09-19T06:46:48;99994.31;;;18.88;100.00
62122;BME280;48108;47.532;19.084;2023-09-19T06:49:53;99994.69;;;18.79;100.00
62122;BME280;48108;47.532;19.084;2023-09-19T06:52:57;100001.28;;;18.72;100.00
62122;BME280;48108;47.532;19.084;2023-09-19T06:56:02;99998.59;;;18.60;100.00
62122;BME280;48108;47.532;19.084;2023-09-19T06:59:08;100010.47;;;18.54;100.00
62122;BME280;48108;47.532;19.084;2023-09-19T07:02:11;100011.41;;;18.59;100.00
62122;BME280;48108;47.532;19.084;2023-09-19T07:05:16;100011.75;;;18.63;100.00
62122;BME280;48108;47.532;19.084;2023-09-19T07:08:21;100011.75;;;18.63;100.00
62122;BME280;48108;47.532;19.084;2023-09-19T07:11:24;100023.59;;;18.57;100.00
62122;BME280;48108;47.532;19.084;2023-09-19T07:14:27;100025.88;;;18.48;100.00
62122;BME280;48108;47.532;19.084;2023-09-19T07:17:31;100031.44;;;18.42;100.00
62122;BME280;48108;47.532;19.084;2023-09-19T07:20:36;100032.66;;;18.46;100.00
62122;BME280;48108;47.532;19.084;2023-09-19T07:23:39;100042.12;;;18.43;100.00
62122;BME280;48108;47.532;19.084;2023-09-19T07:26:45;100048.06;;;18.52;100.00
62122;BME280;48108;47.532;19.084;2023-09-19T07:30:39;100043.16;;;18.66;100.00
62122;BME280;48108;47.532;19.084;2023-09-19T07:33:43;100044.34;;;18.70;100.00
62122;BME280;48108;47.532;19.084;2023-09-19T07:36:46;100051.59;;;18.88;100.00
62122;BME280;48108;47.532;19.084;2023-09-19T07:39:51;100049.94;;;18.87;100.00
62122;BME280;48108;47.532;19.084;2023-09-19T07:42:55;100049.69;;;18.65;100.00
62122;BME280;48108;47.532;19.084;2023-09-19T07:46:03;100056.56;;;18.55;100.00
62122;BME280;48108;47.532;19.084;2023-09-19T07:49:06;100062.16;;;18.25;100.00
62122;BME280;48108;47.532;19.084;2023-09-19T07:52:09;100071.13;;;17.72;100.00
62122;BME280;48108;47.532;19.084;2023-09-19T07:55:13;100064.88;;;17.41;100.00
62122;BME280;48108;47.532;19.084;2023-09-19T07:58:18;100068.53;;;17.35;100.00
62122;BME280;48108;47.532;19.084;2023-09-19T08:01:21;100074.78;;;17.36;100.00
62122;BME280;48108;47.532;19.084;2023-09-19T08:04:27;100080.84;;;17.38;100.00
62122;BME280;48108;47.532;19.084;2023-09-19T08:07:29;100084.25;;;17.33;100.00
62122;BME280;48108;47.532;19.084;2023-09-19T08:10:33;100093.94;;;17.29;100.00
62122;BME280;48108;47.532;19.084;2023-09-19T08:13:39;100098.59;;;17.22;100.00
62122;BME280;48108;47.532;19.084;2023-09-19T08:16:46;100097.19;;;17.19;100.00
62122;BME280;48108;47.532;19.084;2023-09-19T08:19:49;100106.47;;;17.30;100.00
62122;BME280;48108;47.532;19.084;2023-09-19T08:22:56;100109.81;;;17.32;100.00
62122;BME280;48108;47.532;19.084;2023-09-19T08:25:58;100121.87;;;17.36;100.00
62122;BME280;48108;47.532;19.084;2023-09-19T08:29:06;100133.53;;;17.43;100.00
62122;BME280;48108;47.532;19.084;2023-09-19T08:32:12;100134.41;;;17.37;100.00
62122;BME280;48108;47.532;19.084;2023-09-19T08:35:16;100135.63;;;17.41;100.00
62122;BME280;48108;47.532;19.084;2023-09-19T08:38:19;100142.37;;;17.39;100.00
62122;BME280;48108;47.532;19.084;2023-09-19T08:41:23;100133.75;;;17.42;100.00
62122;BME280;48108;47.532;19.084;2023-09-19T08:44:26;100136.16;;;17.50;100.00
62122;BME280;48108;47.532;19.084;2023-09-19T08:47:47;100148.84;;;17.56;100.00
62122;BME280;48108;47.532;19.084;2023-09-19T08:51:00;100156.03;;;17.51;100.00
62122;BME280;48108;47.532;19.084;2023-09-19T08:54:07;100163.19;;;17.63;100.00
62122;BME280;48108;47.532;19.084;2023-09-19T08:57:10;100169.94;;;17.79;100.00
62122;BME280;48108;47.532;19.084;2023-09-19T09:00:15;100176.44;;;17.78;100.00
62122;BME280;48108;47.532;19.084;2023-09-19T09:03:25;100184.91;;;17.70;100.00
62122;BME280;48108;47.532;19.084;2023-09-19T09:06:29;100193.44;;;17.74;100.00
62122;BME280;48108;47.532;19.084;2023-09-19T09:09:33;100185.03;;;17.75;100.00
62122;BME280;48108;47.532;19.084;2023-09-19T09:12:37;100176.72;;;17.70;100.00
62122;BME280;48108;47.532;19.084;2023-09-19T09:15:42;100180.53;;;17.51;100.00
62122;BME280;48108;47.532;19.084;2023-09-19T09:18:49;100166.16;;;17.62;100.00
62122;BME280;48108;47.532;19.084;2023-09-19T09:22:10;100140.75;;;17.98;100.00
62122;BME280;48108;47.532;19.084;2023-09-19T09:25:14;100138.69;;;18.35;100.00
62122;BME280;48108;47.532;19.084;2023-09-19T09:28:24;100152.59;;;18.46;100.00
62122;BME280;48108;47.532;19.084;2023-09-19T09:31:28;100140.50;;;18.65;100.00
62122;BME280;48108;47.532;19.084;2023-09-19T09:34:33;100127.81;;;18.71;100.00
62122;BME280;48108;47.532;19.084;2023-09-19T09:37:36;100133.62;;;18.51;100.00
62122;BME280;48108;47.532;19.084;2023-09-19T09:40:49;100115.47;;;18.56;100.00
62122;BME280;48108;47.532;19.084;2023-09-19T09:44:17;100105.78;;;18.49;100.00
62122;BME280;48108;47.532;19.084;2023-09-19T09:47:41;100117.16;;;18.34;100.00
62122;BME280;48108;47.532;19.084;2023-09-19T09:50:48;100117.00;;;18.29;100.00
62122;BME280;48108;47.532;19.084;2023-09-19T09:53:51;100125.63;;;18.14;100.00
62122;BME280;48108;47.532;19.084;2023-09-19T09:57:08;100130.59;;;18.05;100.00
62122;BME280;48108;47.532;19.084;2023-09-19T10:00:23;100151.44;;;18.11;100.00
62122;BME280;48108;47.532;19.084;2023-09-19T10:03:59;100163.91;;;18.19;100.00
62122;BME280;48108;47.532;19.084;2023-09-19T10:07:03;100156.22;;;18.28;100.00
62122;BME280;48108;47.532;19.084;2023-09-19T10:10:14;100149.13;;;18.39;100.00
62122;BME280;48108;47.532;19.084;2023-09-19T10:13:25;100146.06;;;18.58;100.00
62122;BME280;48108;47.532;19.084;2023-09-19T10:16:32;100144.44;;;19.05;100.00
62122;BME280;48108;47.532;19.084;2023-09-19T10:19:40;100152.81;;;19.79;100.00
62122;BME280;48108;47.532;19.084;2023-09-19T10:22:49;100144.44;;;20.31;100.00
62122;BME280;48108;47.532;19.084;2023-09-19T10:26:01;100159.31;;;20.69;100.00
62122;BME280;48108;47.532;19.084;2023-09-19T10:29:06;100153.97;;;20.96;100.00
62122;BME280;48108;47.532;19.084;2023-09-19T10:32:11;100158.59;;;20.95;100.00
62122;BME280;48108;47.532;19.084;2023-09-19T10:35:21;100152.00;;;21.13;100.00
62122;BME280;48108;47.532;19.084;2023-09-19T10:38:27;100169.28;;;21.36;100.00
62122;BME280;48108;47.532;19.084;2023-09-19T10:41:32;100166.31;;;21.59;100.00
62122;BME280;48108;47.532;19.084;2023-09-19T10:44:38;100169.37;;;21.63;100.00
62122;BME280;48108;47.532;19.084;2023-09-19T10:47:45;100171.91;;;21.69;100.00
62122;BME280;48108;47.532;19.084;2023-09-19T10:54:08;100164.94;;;21.84;100.00
62122;BME280;48108;47.532;19.084;2023-09-19T10:57:22;100182.06;;;21.47;100.00
62122;BME280;48108;47.532;19.084;2023-09-19T11:00:30;100174.84;;;21.63;100.00
62122;BME280;48108;47.532;19.084;2023-09-19T11:04:21;100181.44;;;21.62;100.00
62122;BME280;48108;47.532;19.084;2023-09-19T11:07:28;100179.44;;;21.57;100.00
62122;BME280;48108;47.532;19.084;2023-09-19T11:10:52;100179.81;;;21.66;100.00
62122;BME280;48108;47.532;19.084;2023-09-19T11:17:30;100189.87;;;21.82;100.00
62122;BME280;48108;47.532;19.084;2023-09-19T11:20:37;100196.87;;;21.95;100.00
62122;BME280;48108;47.532;19.084;2023-09-19T11:27:36;100185.72;;;24.19;100.00
62122;BME280;48108;47.532;19.084;2023-09-19T11:35:08;100189.97;;;26.18;83.71
62122;BME280;48108;47.532;19.084;2023-09-19T11:38:13;100184.66;;;27.24;80.20
62122;BME280;48108;47.532;19.084;2023-09-19T11:41:41;100172.37;;;27.78;73.90
62122;BME280;48108;47.532;19.084;2023-09-19T11:44:48;100171.59;;;29.55;64.99
62122;BME280;48108;47.532;19.084;2023-09-19T11:47:56;100174.31;;;31.49;57.03
62122;BME280;48108;47.532;19.084;2023-09-19T11:51:16;100150.72;;;32.94;50.88
62122;BME280;48108;47.532;19.084;2023-09-19T11:54:41;100150.53;;;32.00;49.59
62122;BME280;48108;47.532;19.084;2023-09-19T11:57:50;100148.09;;;30.93;51.45
62122;BME280;48108;47.532;19.084;2023-09-19T12:00:54;100142.59;;;30.57;51.24
62122;BME280;48108;47.532;19.084;2023-09-19T12:04:02;100137.66;;;31.56;49.31
62122;BME280;48108;47.532;19.084;2023-09-19T12:07:08;100135.31;;;32.97;46.72
62122;BME280;48108;47.532;19.084;2023-09-19T12:10:19;100140.38;;;34.68;40.74
62122;BME280;48108;47.532;19.084;2023-09-19T12:13:24;100146.84;;;34.93;41.13
62122;BME280;48108;47.532;19.084;2023-09-19T12:16:28;100146.41;;;35.40;40.39
62122;BME280;48108;47.532;19.084;2023-09-19T12:19:36;100131.31;;;34.95;37.56
62122;BME280;48108;47.532;19.084;2023-09-19T12:22:41;100150.25;;;34.32;39.37
62122;BME280;48108;47.532;19.084;2023-09-19T12:25:47;100147.41;;;32.11;43.96
62122;BME280;48108;47.532;19.084;2023-09-19T12:28:54;100147.53;;;31.22;46.34
62122;BME280;48108;47.532;19.084;2023-09-19T12:31:59;100156.41;;;30.93;48.27
62122;BME280;48108;47.532;19.084;2023-09-19T12:35:03;100153.63;;;31.24;46.73
62122;BME280;48108;47.532;19.084;2023-09-19T12:38:10;100160.91;;;31.51;45.63
62122;BME280;48108;47.532;19.084;2023-09-19T12:41:13;100159.56;;;31.97;44.17
62122;BME280;48108;47.532;19.084;2023-09-19T12:44:17;100168.63;;;32.85;43.43
62122;BME280;48108;47.532;19.084;2023-09-19T12:47:21;100170.34;;;32.34;43.36
62122;BME280;48108;47.532;19.084;2023-09-19T12:50:27;100166.84;;;31.76;44.09
62122;BME280;48108;47.532;19.084;2023-09-19T12:53:37;100163.81;;;32.47;43.18
62122;BME280;48108;47.532;19.084;2023-09-19T12:56:45;100166.50;;;34.18;39.43
62122;BME280;48108;47.532;19.084;2023-09-19T12:59:52;100166.63;;;36.10;37.44
62122;BME280;48108;47.532;19.084;2023-09-19T13:06:35;100164.62;;;37.78;31.13
62122;BME280;48108;47.532;19.084;2023-09-19T13:10:03;100164.69;;;37.31;32.06
62122;BME280;48108;47.532;19.084;2023-09-19T13:13:23;100162.03;;;39.09;29.69
62122;BME280;48108;47.532;19.084;2023-09-19T13:16:30;100157.41;;;39.74;28.41
62122;BME280;48108;47.532;19.084;2023-09-19T13:22:53;100159.13;;;38.40;29.89
62122;BME280;48108;47.532;19.084;2023-09-19T13:25:57;100156.41;;;39.32;28.74
62122;BME280;48108;47.532;19.084;2023-09-19T13:29:01;100150.25;;;40.40;27.55
62122;BME280;48108;47.532;19.084;2023-09-19T13:32:04;100157.38;;;39.97;27.17
62122;BME280;48108;47.532;19.084;2023-09-19T13:35:07;100161.03;;;39.21;28.00
62122;BME280;48108;47.532;19.084;2023-09-19T13:38:12;100160.50;;;36.93;30.99
62122;BME280;48108;47.532;19.084;2023-09-19T13:41:15;100150.22;;;37.80;30.43
62122;BME280;48108;47.532;19.084;2023-09-19T13:44:19;100156.06;;;37.39;30.13
62122;BME280;48108;47.532;19.084;2023-09-19T13:47:22;100161.41;;;36.65;30.83
62122;BME280;48108;47.532;19.084;2023-09-19T13:50:27;100166.13;;;36.93;30.45
62122;BME280;48108;47.532;19.084;2023-09-19T13:53:32;100171.66;;;36.05;31.20
62122;BME280;48108;47.532;19.084;2023-09-19T13:56:35;100180.81;;;35.40;32.11
62122;BME280;48108;47.532;19.084;2023-09-19T13:59:39;100192.38;;;35.51;33.64
62122;BME280;48108;47.532;19.084;2023-09-19T14:02:42;100196.94;;;35.56;32.85
62122;BME280;48108;47.532;19.084;2023-09-19T14:05:49;100191.53;;;35.51;33.26
62122;BME280;48108;47.532;19.084;2023-09-19T14:08:53;100189.84;;;34.55;35.22
62122;BME280;48108;47.532;19.084;2023-09-19T14:11:57;100196.91;;;32.14;39.17
62122;BME280;48108;47.532;19.084;2023-09-19T14:15:00;100200.13;;;29.97;43.95
62122;BME280;48108;47.532;19.084;2023-09-19T14:18:03;100199.03;;;28.83;47.41
62122;BME280;48108;47.532;19.084;2023-09-19T14:21:07;100195.88;;;27.81;50.70
62122;BME280;48108;47.532;19.084;2023-09-19T14:24:17;100207.81;;;26.70;55.64
62122;BME280;48108;47.532;19.084;2023-09-19T14:27:20;100205.47;;;26.09;58.76
62122;BME280;48108;47.532;19.084;2023-09-19T14:30:23;100200.47;;;25.56;62.68
62122;BME280;48108;47.532;19.084;2023-09-19T14:33:26;100198.12;;;25.19;63.54
62122;BME280;48108;47.532;19.084;2023-09-19T14:36:32;100204.16;;;25.00;66.73
62122;BME280;48108;47.532;19.084;2023-09-19T14:39:35;100206.66;;;24.92;66.45
62122;BME280;48108;47.532;19.084;2023-09-19T14:42:39;100195.38;;;24.62;69.08
62122;BME280;48108;47.532;19.084;2023-09-19T14:45:42;100194.00;;;24.34;70.01
62122;BME280;48108;47.532;19.084;2023-09-19T14:48:45;100200.22;;;23.94;71.51
62122;BME280;48108;47.532;19.084;2023-09-19T14:51:49;100196.91;;;23.82;72.34
62122;BME280;48108;47.532;19.084;2023-09-19T14:54:55;100203.75;;;23.74;74.86
62122;BME280;48108;47.532;19.084;2023-09-19T14:57:57;100198.69;;;23.56;75.56
62122;BME280;48108;47.532;19.084;2023-09-19T15:01:03;100202.16;;;23.36;75.22
62122;BME280;48108;47.532;19.084;2023-09-19T15:04:07;100206.56;;;23.31;75.05
62122;BME280;48108;47.532;19.084;2023-09-19T15:07:12;100206.97;;;23.13;74.25
62122;BME280;48108;47.532;19.084;2023-09-19T15:10:16;100206.44;;;23.11;74.15
62122;BME280;48108;47.532;19.084;2023-09-19T15:13:21;100202.50;;;23.02;74.19
62122;BME280;48108;47.532;19.084;2023-09-19T15:16:24;100198.66;;;22.98;75.69
62122;BME280;48108;47.532;19.084;2023-09-19T15:19:27;100206.87;;;22.98;72.37
62122;BME280;48108;47.532;19.084;2023-09-19T15:22:30;100207.88;;;22.86;73.23
62122;BME280;48108;47.532;19.084;2023-09-19T15:25:33;100208.88;;;22.70;73.26
62122;BME280;48108;47.532;19.084;2023-09-19T15:28:38;100220.88;;;22.64;73.19
62122;BME280;48108;47.532;19.084;2023-09-19T15:31:43;100206.87;;;22.66;73.84
62122;BME280;48108;47.532;19.084;2023-09-19T15:34:47;100231.00;;;22.63;74.18
62122;BME280;48108;47.532;19.084;2023-09-19T15:37:50;100230.37;;;22.51;74.00
62122;BME280;48108;47.532;19.084;2023-09-19T15:40:55;100228.09;;;22.43;74.37
62122;BME280;48108;47.532;19.084;2023-09-19T15:43:59;100233.78;;;22.36;76.01
62122;BME280;48108;47.532;19.084;2023-09-19T15:47:04;100240.91;;;22.32;76.15
62122;BME280;48108;47.532;19.084;2023-09-19T15:50:08;100242.25;;;22.30;76.85
62122;BME280;48108;47.532;19.084;2023-09-19T15:53:16;100249.66;;;22.29;76.82
62122;BME280;48108;47.532;19.084;2023-09-19T15:56:21;100248.78;;;22.29;78.16
62122;BME280;48108;47.532;19.084;2023-09-19T15:59:25;100250.09;;;22.21;78.34
